Time;durP1;ratioP1;P1;durP2;ratioP2;P2;SDS_P1;SDS_P2;PMS_P1;PMS_P2;Temp;Humidity;BMP_temperature;BMP_pressure;BME280_temperature;BME280_humidity;BME280_pressure;Samples;Min_cycle;Max_cycle;Signal;HPM_P1;HPM_P2
2022/05/13 00:00:16;;;;;;;;;0.50;0.50;;;;;17.43;42.74;102029.84;2391301;28;45236;-77
2022/05/13 00:01:26;;;;;;;;;2.00;1.00;;;;;17.38;42.29;102029.19;2396463;28;45516;-77
2022/05/13 00:02:37;;;;;;;;;2.00;0.25;;;;;17.39;42.29;102034.41;2402983;28;45176;-77
2022/05/13 00:03:48;;;;;;;;;0.00;0.00;;;;;17.39;42.41;102030.88;2393599;28;46831;-77
2022/05/13 00:04:58;;;;;;;;;0.00;0.00;;;;;17.40;42.19;102029.97;2389526;28;45225;-80
2022/05/13 00:06:09;;;;;;;;;3.00;1.00;;;;;17.40;42.42;102032.63;2393498;28;45483;-77
2022/05/13 00:07:20;;;;;;;;;1.00;1.00;;;;;17.37;42.22;102028.31;2394282;28;45266;-77
2022/05/13 00:08:31;;;;;;;;;1.00;1.00;;;;;17.37;42.62;102030.09;2393912;28;45576;-79
2022/05/13 00:09:57;;;;;;;;;0.75;0.75;;;;;17.31;42.18;102028.53;2397490;28;44650;-80
2022/05/13 00:11:09;;;;;;;;;0.00;0.00;;;;;17.32;42.51;102030.28;2402829;28;46267;-80
2022/05/13 00:12:20;;;;;;;;;0.50;0.50;;;;;17.31;42.00;102032.06;2403611;28;45434;-80
2022/05/13 00:13:31;;;;;;;;;0.00;0.00;;;;;17.31;42.27;102028.53;2403339;28;45935;-78
2022/05/13 00:14:42;;;;;;;;;0.00;0.00;;;;;17.30;42.26;102038.34;2401987;28;45227;-79
2022/05/13 00:15:52;;;;;;;;;3.00;1.50;;;;;17.26;42.08;102041.19;2403377;28;46457;-77
2022/05/13 00:17:03;;;;;;;;;0.00;0.00;;;;;17.21;42.11;102028.94;2403497;28;45626;-77
2022/05/13 00:18:15;;;;;;;;;0.00;0.00;;;;;17.19;42.30;102027.25;2397034;28;45475;-77
2022/05/13 00:19:26;;;;;;;;;0.50;0.00;;;;;17.17;42.17;102029.13;2402292;28;45365;-79
2022/05/13 00:20:37;;;;;;;;;1.00;1.00;;;;;17.14;42.26;102023.88;2400102;28;45513;-79
2022/05/13 00:21:47;;;;;;;;;1.25;1.00;;;;;17.11;42.25;102016.94;2394118;28;45339;-77
2022/05/13 00:22:58;;;;;;;;;4.00;1.00;;;;;17.13;41.84;102023.06;2401113;28;46360;-77
2022/05/13 00:24:08;;;;;;;;;1.00;1.00;;;;;17.13;41.99;102024.84;2403408;28;44584;-77
2022/05/13 00:25:25;;;;;;;;;0.75;0.00;;;;;17.13;42.15;102022.19;2403127;28;46310;-77
2022/05/13 00:26:35;;;;;;;;;0.75;0.75;;;;;17.11;42.02;102022.25;2403409;28;45149;-78
2022/05/13 00:27:46;;;;;;;;;0.50;0.00;;;;;17.09;42.07;102022.28;2403260;28;46335;-78
2022/05/13 00:28:57;;;;;;;;;1.00;0.00;;;;;17.09;42.14;102024.06;2393310;28;45459;-78
2022/05/13 00:30:09;;;;;;;;;0.50;0.00;;;;;17.09;42.37;102022.28;2392841;28;46652;-78
2022/05/13 00:31:19;;;;;;;;;1.75;1.00;;;;;17.13;41.70;102023.06;2390242;28;45630;-79
2022/05/13 00:32:30;;;;;;;;;0.00;0.00;;;;;17.13;42.05;102023.06;2383763;28;47937;-78
2022/05/13 00:33:40;;;;;;;;;0.25;0.25;;;;;17.12;41.68;102025.75;2400043;28;45446;-79
2022/05/13 00:34:51;;;;;;;;;2.00;1.00;;;;;17.10;41.47;102023.16;2392638;28;47845;-79
2022/05/13 00:36:02;;;;;;;;;1.00;1.00;;;;;17.08;41.93;102020.59;2386679;28;45252;-79
2022/05/13 00:37:12;;;;;;;;;0.00;0.00;;;;;17.08;41.92;102022.38;2393876;28;46466;-79
2022/05/13 00:38:23;;;;;;;;;1.75;1.00;;;;;17.07;41.19;102015.31;2393956;28;44691;-79
2022/05/13 00:39:33;;;;;;;;;0.00;0.00;;;;;17.07;41.22;102034.78;2385217;28;47436;-79
2022/05/13 00:40:46;;;;;;;;;0.75;0.75;;;;;17.04;41.27;102023.44;2396017;28;45343;-79
2022/05/13 00:42:11;;;;;;;;;0.00;0.00;;;;;17.00;41.02;102027.97;2403317;28;46075;-79
2022/05/13 00:43:40;;;;;;;;;0.00;0.00;;;;;16.98;40.98;102029.84;2392459;28;45395;-79
2022/05/13 00:44:50;;;;;;;;;0.00;0.00;;;;;16.96;40.88;102029.03;2395800;28;45431;-79
2022/05/13 00:46:03;;;;;;;;;1.00;0.00;;;;;16.96;41.00;102026.38;2392714;28;45358;-79
2022/05/13 00:47:14;;;;;;;;;0.00;0.00;;;;;16.97;41.00;102028.09;2386222;28;47231;-79
2022/05/13 00:48:24;;;;;;;;;1.50;0.00;;;;;16.94;40.17;102025.59;2390659;28;45447;-79
2022/05/13 00:49:34;;;;;;;;;0.00;0.00;;;;;16.91;40.53;102023.03;2383665;28;46932;-79
2022/05/13 00:50:45;;;;;;;;;0.50;0.00;;;;;16.86;40.52;102016.13;2386593;28;44653;-79
2022/05/13 00:51:55;;;;;;;;;0.00;0.00;;;;;16.83;40.19;102020.69;2384487;28;48333;-79
2022/05/13 00:53:06;;;;;;;;;0.00;0.00;;;;;16.79;40.39;102013.78;2393285;28;45443;-79
2022/05/13 00:54:17;;;;;;;;;1.00;0.00;;;;;16.79;40.77;102019.09;2388479;28;47232;-79
2022/05/13 00:55:33;;;;;;;;;0.25;0.25;;;;;16.80;40.34;102023.44;2386343;28;44683;-78
2022/05/13 00:56:47;;;;;;;;;1.75;0.00;;;;;16.76;40.82;102015.63;2400737;28;46322;-79
2022/05/13 00:57:58;;;;;;;;;1.00;0.00;;;;;16.79;40.46;102019.91;2392908;28;44636;-79
2022/05/13 00:59:13;;;;;;;;;1.00;0.75;;;;;16.79;40.75;102019.09;2395907;28;46601;-79
2022/05/13 01:00:24;;;;;;;;;1.00;1.00;;;;;16.76;40.28;102022.72;2400143;28;44588;-79
2022/05/13 01:01:34;;;;;;;;;1.00;0.00;;;;;16.72;40.44;102018.44;2392889;28;47838;-79
2022/05/13 01:02:45;;;;;;;;;1.00;1.00;;;;;16.68;40.21;102027.44;2396040;28;44639;-79
2022/05/13 01:04:03;;;;;;;;;2.00;0.50;;;;;16.68;40.59;102033.63;2402197;28;47650;-75
2022/05/13 01:05:16;;;;;;;;;0.00;0.00;;;;;16.67;40.31;102031.03;2402631;28;45302;-75
2022/05/13 01:06:26;;;;;;;;;2.50;0.00;;;;;16.62;40.54;102025.88;2401634;28;46863;-76
2022/05/13 01:07:37;;;;;;;;;2.50;0.00;;;;;16.62;40.72;102025.88;2383551;28;45320;-76
2022/05/13 01:08:49;;;;;;;;;0.00;0.00;;;;;16.64;40.65;102032.03;2391055;28;47319;-75
2022/05/13 01:10:01;;;;;;;;;0.50;0.00;;;;;16.63;40.79;102031.16;2401352;28;45374;-76
2022/05/13 01:11:15;;;;;;;;;2.00;0.00;;;;;16.61;40.78;102033.00;2392840;28;47436;-76
2022/05/13 01:12:34;;;;;;;;;0.75;0.75;;;;;16.60;40.82;102033.91;2395501;28;44749;-77
2022/05/13 01:13:51;;;;;;;;;0.25;0.25;;;;;16.62;41.11;102034.72;2392948;28;48195;-79
2022/05/13 01:15:07;;;;;;;;;1.00;1.00;;;;;16.62;40.82;102034.72;2389967;28;44742;-77
2022/05/13 01:16:17;;;;;;;;;0.00;0.00;;;;;16.62;40.81;102029.41;2397458;28;46361;-78
2022/05/13 01:19:01;;;;;;;;;0.75;0.50;;;;;16.61;40.96;102029.47;2401340;28;45752;-79
2022/05/13 01:20:19;;;;;;;;;2.00;1.00;;;;;16.61;40.67;102043.63;2400822;28;45164;-79
2022/05/13 01:21:33;;;;;;;;;0.00;0.00;;;;;16.57;40.94;102033.19;2394276;28;45581;-79
2022/05/13 01:22:51;;;;;;;;;0.50;0.00;;;;;16.54;41.01;102034.16;2402332;28;45251;-80
2022/05/13 01:24:03;;;;;;;;;1.00;1.00;;;;;16.58;41.18;102037.53;2392200;28;48468;-79
2022/05/13 01:25:16;;;;;;;;;1.00;0.00;;;;;16.58;40.91;102040.19;2386105;28;45675;-79
2022/05/13 01:26:29;;;;;;;;;0.50;0.50;;;;;16.59;41.09;102040.16;2385887;28;47118;-79
2022/05/13 01:27:43;;;;;;;;;0.25;0.25;;;;;16.58;41.29;102040.19;2396232;28;45307;-80
2022/05/13 01:28:55;;;;;;;;;0.00;0.00;;;;;16.60;41.33;102033.91;2402282;28;46307;-79
2022/05/13 01:30:06;;;;;;;;;0.75;0.00;;;;;16.64;40.98;102038.16;2398879;28;45403;-79
2022/05/13 01:31:30;;;;;;;;;1.50;0.25;;;;;16.62;40.91;102037.38;2392734;28;45298;-80
2022/05/13 01:32:41;;;;;;;;;0.00;0.00;;;;;16.63;41.34;102036.47;2399250;28;44739;-80
2022/05/13 01:33:52;;;;;;;;;1.00;1.00;;;;;16.64;41.25;102038.16;2404801;28;45237;-79
2022/05/13 01:35:03;;;;;;;;;0.25;0.25;;;;;16.70;41.38;102045.03;2399937;28;45239;-79
2022/05/13 01:36:14;;;;;;;;;0.25;0.00;;;;;16.71;41.12;102044.13;2402799;28;45366;-79
2022/05/13 01:37:24;;;;;;;;;1.00;1.00;;;;;16.72;41.56;102040.53;2403085;28;45276;-79
2022/05/13 01:38:36;;;;;;;;;1.00;1.00;;;;;16.74;41.31;102046.66;2400750;28;46083;-80
2022/05/13 01:39:47;;;;;;;;;1.25;1.00;;;;;16.73;40.84;102041.41;2392262;28;44723;-79
2022/05/13 01:40:58;;;;;;;;;1.00;0.50;;;;;16.72;41.64;102050.28;2395431;28;46093;-78
2022/05/13 01:42:08;;;;;;;;;1.00;1.00;;;;;16.70;41.21;102042.38;2403090;28;44676;-78
2022/05/13 01:43:19;;;;;;;;;0.00;0.00;;;;;16.64;41.42;102039.97;2402692;28;45286;-79
2022/05/13 01:44:30;;;;;;;;;1.00;0.00;;;;;16.62;41.56;102047.13;2402954;28;45318;-79
2022/05/13 01:45:41;;;;;;;;;0.00;0.00;;;;;16.60;41.82;102048.97;2398997;28;45332;-79
2022/05/13 01:46:52;;;;;;;;;2.00;0.25;;;;;16.56;41.80;102044.72;2392426;28;45269;-79
2022/05/13 01:48:03;;;;;;;;;1.25;0.00;;;;;16.52;42.03;102052.78;2384394;28;47830;-79
2022/05/13 01:49:13;;;;;;;;;0.25;0.25;;;;;16.47;42.07;102044.13;2388413;28;45240;-79
2022/05/13 01:50:26;;;;;;;;;0.00;0.00;;;;;16.47;42.34;102051.25;2401823;28;46210;-79
2022/05/13 01:51:37;;;;;;;;;1.25;0.00;;;;;16.42;42.62;102046.94;2392882;28;45366;-79
2022/05/13 01:52:47;;;;;;;;;0.75;0.00;;;;;16.36;42.51;102036.56;2398117;28;45270;-79
2022/05/13 01:53:57;;;;;;;;;2.75;0.25;;;;;16.36;42.58;102041.00;2393420;28;45155;-78
2022/05/13 01:55:08;;;;;;;;;2.00;1.00;;;;;16.32;42.47;102029.66;2383110;28;47146;-79
2022/05/13 01:56:19;;;;;;;;;0.75;0.50;;;;;16.33;42.73;102031.38;2386425;28;45353;-80
2022/05/13 01:57:29;;;;;;;;;0.25;0.25;;;;;16.35;42.96;102032.16;2389671;28;46964;-80
2022/05/13 01:58:39;;;;;;;;;1.00;0.75;;;;;16.35;43.04;102037.47;2393846;28;46734;-79
2022/05/13 01:59:50;;;;;;;;;1.00;1.00;;;;;16.34;43.17;102035.78;2402367;28;46240;-79
2022/05/13 02:01:03;;;;;;;;;1.00;0.75;;;;;16.33;43.08;102033.16;2401238;28;44762;-79
2022/05/13 02:02:13;;;;;;;;;1.00;1.00;;;;;16.34;43.35;102038.41;2392536;28;46481;-79
2022/05/13 02:03:44;;;;;;;;;2.75;0.50;;;;;16.37;43.19;102046.25;2394901;28;45397;-80
2022/05/13 02:04:54;;;;;;;;;1.25;1.00;;;;;16.37;43.38;102042.75;2392427;28;48311;-80
2022/05/13 02:06:05;;;;;;;;;0.50;0.50;;;;;16.37;43.46;102046.25;2392956;28;44681;-81
2022/05/13 02:07:16;;;;;;;;;0.00;0.00;;;;;16.37;43.50;102040.94;2393203;28;45318;-81
2022/05/13 02:08:27;;;;;;;;;0.25;0.25;;;;;16.36;43.68;102035.69;2389398;28;45318;-81
2022/05/13 02:09:37;;;;;;;;;3.00;0.00;;;;;16.31;43.56;102035.88;2395585;28;46361;-81
2022/05/13 02:10:48;;;;;;;;;1.75;1.00;;;;;16.31;43.68;102043.84;2401803;28;45492;-81
2022/05/13 02:11:58;;;;;;;;;1.00;0.25;;;;;16.31;43.95;102033.22;2402022;28;45247;-80
2022/05/13 02:13:10;;;;;;;;;0.00;0.00;;;;;16.31;43.68;102039.41;2402121;28;44727;-80
2022/05/13 02:14:21;;;;;;;;;0.50;0.50;;;;;16.31;44.03;102036.75;2400332;28;45353;-79
2022/05/13 02:15:32;;;;;;;;;0.75;0.00;;;;;16.32;43.88;102037.63;2384966;28;45324;-78
2022/05/13 02:16:42;;;;;;;;;1.50;1.50;;;;;16.33;43.99;102041.97;2394209;28;45371;-78
2022/05/13 02:17:53;;;;;;;;;0.00;0.00;;;;;16.31;44.11;102028.78;2393252;28;45287;-78
2022/05/13 02:19:03;;;;;;;;;0.50;0.50;;;;;16.30;43.92;102036.78;2393615;28;46200;-77
2022/05/13 02:20:14;;;;;;;;;2.50;0.75;;;;;16.30;44.18;102034.13;2394875;28;45267;-77
2022/05/13 02:21:25;;;;;;;;;1.75;1.75;;;;;16.31;44.03;102030.56;2393327;28;46933;-77
2022/05/13 02:22:36;;;;;;;;;1.25;0.75;;;;;16.34;44.10;102032.25;2394578;28;45340;-78
2022/05/13 02:23:46;;;;;;;;;1.25;1.25;;;;;16.36;44.15;102044.53;2384520;28;47479;-77
2022/05/13 02:24:56;;;;;;;;;1.00;1.00;;;;;16.37;44.53;102045.41;2384408;28;45432;-77
2022/05/13 02:26:10;;;;;;;;;3.00;1.00;;;;;16.37;44.05;102043.59;2387012;28;48425;-76
2022/05/13 02:27:20;;;;;;;;;2.00;0.75;;;;;16.39;44.47;102043.56;2387970;28;45581;-77
2022/05/13 02:28:32;;;;;;;;;0.75;0.75;;;;;16.41;44.07;102047.00;2392822;28;48071;-76
2022/05/13 02:29:42;;;;;;;;;2.00;1.50;;;;;16.42;44.05;102038.97;2394120;28;44637;-76
2022/05/13 02:30:53;;;;;;;;;0.00;0.00;;;;;16.42;44.46;102048.75;2393521;28;46579;-76
2022/05/13 02:32:04;;;;;;;;;0.00;0.00;;;;;16.43;44.19;102045.16;2375902;28;45251;-76
2022/05/13 02:33:15;;;;;;;;;0.00;0.00;;;;;16.46;44.58;102050.38;2383024;28;46796;-76
2022/05/13 02:34:25;;;;;;;;;1.00;1.00;;;;;16.49;44.67;102054.69;2387715;28;45223;-77
2022/05/13 02:35:36;;;;;;;;;0.25;0.25;;;;;16.47;44.66;102045.94;2390198;28;46647;-77
2022/05/13 02:36:47;;;;;;;;;0.00;0.00;;;;;16.49;44.74;102050.25;2393945;28;45333;-78
2022/05/13 02:37:57;;;;;;;;;0.75;0.75;;;;;16.51;44.96;102052.84;2387228;28;47295;-78
2022/05/13 02:39:08;;;;;;;;;0.75;0.75;;;;;16.51;45.34;102043.09;2396953;28;45417;-77
2022/05/13 02:40:19;;;;;;;;;1.25;1.00;;;;;16.51;44.93;102043.09;2403383;28;46788;-78
2022/05/13 02:41:30;;;;;;;;;1.00;1.00;;;;;16.52;45.42;102051.91;2403302;28;45381;-78
2022/05/13 02:42:40;;;;;;;;;1.00;1.00;;;;;16.50;44.74;102045.78;2404145;28;45483;-78
2022/05/13 02:43:53;;;;;;;;;1.00;1.00;;;;;16.49;45.18;102049.38;2393981;28;45369;-79
2022/05/13 02:45:08;;;;;;;;;1.00;0.50;;;;;16.48;45.20;102052.94;2396813;28;46273;-78
2022/05/13 02:46:24;;;;;;;;;3.50;0.50;;;;;16.48;45.06;102052.94;2400780;28;45317;-79
2022/05/13 02:47:35;;;;;;;;;2.25;1.50;;;;;16.47;45.35;102052.06;2404140;28;45564;-79
2022/05/13 02:48:46;;;;;;;;;3.25;0.00;;;;;16.47;45.49;102052.06;2394794;28;45555;-79
2022/05/13 02:51:26;;;;;;;;;1.00;1.00;;;;;16.46;45.69;102053.03;2394767;28;45300;-80
2022/05/13 02:52:37;;;;;;;;;2.25;1.00;;;;;16.44;45.41;102051.34;2394531;28;45433;-80
2022/05/13 02:53:47;;;;;;;;;0.50;0.00;;;;;16.40;45.49;102043.47;2394836;28;45265;-80
2022/05/13 02:54:58;;;;;;;;;0.25;0.25;;;;;16.42;45.63;102049.59;2401174;28;45566;-80
2022/05/13 02:56:08;;;;;;;;;1.50;1.00;;;;;16.39;45.94;102044.44;2404104;28;45234;-80
2022/05/13 02:57:19;;;;;;;;;2.00;1.00;;;;;16.39;46.09;102044.44;2384806;28;48290;-80
2022/05/13 02:58:29;;;;;;;;;3.00;2.00;;;;;16.37;45.87;102050.72;2387510;28;44731;-80
2022/05/13 02:59:39;;;;;;;;;1.00;1.00;;;;;16.37;45.85;102051.56;2400439;28;46475;-80
2022/05/13 03:00:50;;;;;;;;;2.00;0.25;;;;;16.35;46.10;102048.09;2403351;28;45259;-78
2022/05/13 03:02:00;;;;;;;;;0.00;0.00;;;;;16.34;46.19;102046.38;2395238;28;45288;-77
2022/05/13 03:03:12;;;;;;;;;2.00;1.25;;;;;16.34;46.15;102049.03;2391288;28;44686;-77
2022/05/13 03:04:22;;;;;;;;;1.00;1.00;;;;;16.31;46.61;102047.34;2387195;28;48176;-77
2022/05/13 03:05:34;;;;;;;;;4.75;2.00;;;;;16.33;46.25;102043.75;2387171;28;44618;-77
2022/05/13 03:06:44;;;;;;;;;2.00;2.00;;;;;16.32;46.21;102050.88;2392825;28;46649;-77
2022/05/13 03:07:54;;;;;;;;;4.50;1.75;;;;;16.32;46.14;102045.56;2384606;28;45338;-77
2022/05/13 03:09:05;;;;;;;;;4.00;1.00;;;;;16.31;46.59;102047.34;2378254;28;48133;-77
2022/05/13 03:10:17;;;;;;;;;2.75;1.00;;;;;16.29;46.03;102043.03;2393927;28;45217;-77
2022/05/13 03:11:27;;;;;;;;;1.75;1.75;;;;;16.29;45.99;102048.34;2380226;28;47339;-80
2022/05/13 03:12:39;;;;;;;;;3.00;2.00;;;;;16.28;45.93;102042.16;2387306;28;45473;-79
2022/05/13 03:13:51;;;;;;;;;1.00;0.00;;;;;16.27;45.97;102051.03;2393823;28;47258;-79
2022/05/13 03:15:02;;;;;;;;;1.00;1.00;;;;;16.19;46.14;102046.03;2394210;28;44643;-79
2022/05/13 03:16:21;;;;;;;;;1.75;1.00;;;;;16.15;46.13;102039.06;2393314;28;46046;-79
2022/05/13 03:17:31;;;;;;;;;1.00;0.75;;;;;16.09;46.09;102039.31;2388043;28;45272;-79
2022/05/13 03:18:41;;;;;;;;;2.00;1.75;;;;;16.07;46.13;102047.31;2396469;28;45315;-79
2022/05/13 03:19:52;;;;;;;;;1.25;0.25;;;;;16.05;46.35;102046.50;2403647;28;45312;-79
2022/05/13 03:21:02;;;;;;;;;1.75;1.00;;;;;16.04;46.42;102038.56;2403877;28;46274;-79
2022/05/13 03:22:12;;;;;;;;;1.00;1.00;;;;;16.03;46.15;102044.78;2398209;28;45309;-79
2022/05/13 03:23:23;;;;;;;;;1.00;1.00;;;;;16.03;46.31;102050.06;2393603;28;47341;-79
2022/05/13 03:24:34;;;;;;;;;2.50;1.00;;;;;16.03;46.32;102044.78;2377770;28;45310;-79
2022/05/13 03:25:45;;;;;;;;;0.75;0.00;;;;;16.03;46.68;102043.00;2386926;28;46368;-79
2022/05/13 03:26:56;;;;;;;;;2.00;1.00;;;;;16.05;46.28;102043.00;2389374;28;45200;-79
2022/05/13 03:28:10;;;;;;;;;1.00;0.75;;;;;16.03;46.56;102043.00;2396436;28;46305;-79
2022/05/13 03:29:21;;;;;;;;;1.00;1.00;;;;;16.05;46.96;102040.34;2393647;28;44613;-79
2022/05/13 03:30:31;;;;;;;;;1.00;1.00;;;;;16.06;47.15;102045.59;2396012;28;45301;-79
2022/05/13 03:31:41;;;;;;;;;1.25;1.00;;;;;16.09;46.96;102044.59;2400773;28;45212;-79
2022/05/13 03:32:52;;;;;;;;;1.00;1.00;;;;;16.11;47.06;102048.06;2393519;28;48068;-79
2022/05/13 03:34:03;;;;;;;;;3.00;1.50;;;;;16.09;47.06;102044.59;2387975;28;45247;-79
2022/05/13 03:35:15;;;;;;;;;1.25;1.00;;;;;16.12;47.20;102046.28;2395815;28;46436;-79
2022/05/13 03:36:26;;;;;;;;;2.00;1.75;;;;;16.12;46.96;102040.97;2393549;28;45228;-79
2022/05/13 03:37:36;;;;;;;;;1.00;1.00;;;;;16.10;47.07;102048.13;2386793;28;47294;-79
2022/05/13 03:38:46;;;;;;;;;2.25;1.00;;;;;16.10;47.33;102041.00;2386924;28;45284;-79
2022/05/13 03:39:57;;;;;;;;;0.25;0.25;;;;;16.10;47.06;102043.66;2385547;28;47061;-80
2022/05/13 03:41:08;;;;;;;;;2.75;1.25;;;;;16.09;47.12;102036.66;2396436;28;45228;-79
2022/05/13 03:42:20;;;;;;;;;2.00;2.00;;;;;16.08;47.51;102040.22;2391981;28;48278;-79
2022/05/13 03:43:31;;;;;;;;;3.00;2.00;;;;;16.06;47.66;102042.94;2393530;28;45271;-78
2022/05/13 03:44:42;;;;;;;;;1.00;1.00;;;;;16.05;47.21;102045.66;2386491;28;48242;-78
2022/05/13 03:45:52;;;;;;;;;2.25;1.00;;;;;16.02;47.26;102043.06;2387083;28;45303;-78
2022/05/13 03:47:04;;;;;;;;;4.00;1.00;;;;;16.03;47.45;102048.31;2387023;28;48003;-78
2022/05/13 03:48:15;;;;;;;;;4.25;1.75;;;;;16.02;46.96;102048.38;2396102;28;45284;-77
2022/05/13 03:49:25;;;;;;;;;2.25;1.50;;;;;16.02;47.35;102046.59;2393521;28;47252;-78
2022/05/13 03:50:37;;;;;;;;;1.25;1.00;;;;;16.02;47.43;102043.94;2378984;28;45292;-79
2022/05/13 03:51:48;;;;;;;;;1.75;1.75;;;;;16.01;47.70;102044.84;2387008;28;46297;-78
2022/05/13 03:53:00;;;;;;;;;1.00;1.00;;;;;16.01;47.47;102044.84;2394507;28;45464;-78
2022/05/13 03:54:10;;;;;;;;;1.25;1.25;;;;;16.02;47.29;102046.59;2400352;28;46340;-77
2022/05/13 03:55:20;;;;;;;;;4.00;2.00;;;;;16.00;47.50;102051.06;2398302;28;45219;-78
2022/05/13 03:56:31;;;;;;;;;1.25;1.00;;;;;15.97;47.49;102052.06;2394254;28;45250;-78
2022/05/13 03:57:41;;;;;;;;;1.00;1.00;;;;;15.98;47.47;102052.91;2394250;28;44724;-77
2022/05/13 03:58:52;;;;;;;;;1.25;1.25;;;;;15.97;47.77;102056.47;2383988;28;48164;-77
2022/05/13 04:00:05;;;;;;;;;2.00;1.00;;;;;15.99;47.81;102059.94;2387092;28;45302;-79
2022/05/13 04:01:15;;;;;;;;;1.00;1.00;;;;;15.99;47.89;102054.66;2393213;28;47770;-80
2022/05/13 04:02:25;;;;;;;;;2.00;1.00;;;;;15.98;48.22;102059.06;2397624;28;45403;-80
2022/05/13 04:03:36;;;;;;;;;2.25;2.25;;;;;16.01;47.54;102052.78;2392697;28;47194;-80
2022/05/13 04:09:14;;;;;;;;;4.00;2.00;;;;;16.03;47.84;102060.69;2402635;28;45704;-80
2022/05/13 04:10:24;;;;;;;;;2.50;1.75;;;;;16.02;47.86;102058.97;2392908;28;45226;-77
2022/05/13 04:11:37;;;;;;;;;2.00;2.00;;;;;16.01;48.29;102060.75;2397222;28;45301;-78
2022/05/13 04:17:31;;;;;;;;;1.75;1.75;;;;;16.00;48.11;102052.88;2386877;28;46259;-79
2022/05/13 04:18:45;;;;;;;;;2.00;2.00;;;;;15.98;48.42;102056.41;2384743;28;45224;-78
2022/05/13 04:19:55;;;;;;;;;2.50;1.50;;;;;16.01;48.48;102059.88;2388505;28;47568;-78
2022/05/13 04:21:12;;;;;;;;;1.75;0.00;;;;;16.02;48.17;102061.63;2396191;28;45279;-78
2022/05/13 04:22:25;;;;;;;;;2.00;2.00;;;;;16.00;48.66;102060.81;2403413;28;45481;-78
2022/05/13 04:23:38;;;;;;;;;2.50;1.00;;;;;16.00;48.57;102055.50;2392710;28;45199;-78
2022/05/13 04:24:48;;;;;;;;;4.25;2.50;;;;;16.00;48.39;102063.47;2396315;28;45441;-78
2022/05/13 04:25:59;;;;;;;;;2.50;1.00;;;;;15.99;48.40;102067.91;2395680;28;45331;-78
2022/05/13 04:27:09;;;;;;;;;3.75;2.00;;;;;15.95;48.32;102060.97;2393192;28;48486;-78
2022/05/13 04:28:20;;;;;;;;;2.25;2.00;;;;;15.91;48.78;102054.91;2393835;28;45461;-78
2022/05/13 04:29:30;;;;;;;;;1.75;1.00;;;;;15.92;48.92;102067.25;2399770;28;46348;-78
2022/05/13 04:30:41;;;;;;;;;3.00;1.00;;;;;15.91;48.97;102070.81;2397774;28;45163;-81
2022/05/13 04:31:52;;;;;;;;;2.50;2.00;;;;;15.89;49.15;102067.34;2396200;28;46456;-81
2022/05/13 04:33:03;;;;;;;;;1.00;1.00;;;;;15.87;49.32;102066.53;2400771;28;45204;-80
2022/05/13 04:34:13;;;;;;;;;4.25;1.25;;;;;15.85;49.52;102066.56;2392675;28;46159;-79
2022/05/13 04:35:24;;;;;;;;;2.00;2.00;;;;;15.81;49.51;102070.25;2386294;28;44662;-82
2022/05/13 04:36:35;;;;;;;;;3.50;1.50;;;;;15.80;49.76;102073.84;2396094;28;46321;-80
2022/05/13 04:37:45;;;;;;;;;1.25;0.75;;;;;15.81;49.61;102070.25;2387198;28;45184;-79
2022/05/13 04:38:56;;;;;;;;;2.00;2.00;;;;;15.82;49.47;102069.34;2385369;28;46917;-79
2022/05/13 04:40:07;;;;;;;;;3.00;3.00;;;;;15.83;49.46;102075.50;2395371;28;45530;-79
2022/05/13 04:42:50;;;;;;;;;3.25;2.00;;;;;15.86;49.47;102078.06;2403020;28;45354;-79
2022/05/13 04:44:01;;;;;;;;;2.25;2.00;;;;;15.87;49.62;102074.50;2402482;28;45306;-80
2022/05/13 04:45:12;;;;;;;;;4.25;2.00;;;;;15.89;49.52;102072.66;2393173;28;45252;-81
2022/05/13 04:46:23;;;;;;;;;0.00;0.00;;;;;15.87;49.71;102074.50;2386225;28;47900;-81
2022/05/13 04:49:04;;;;;;;;;4.75;2.75;;;;;15.91;49.28;102072.59;2398247;28;45881;-79
2022/05/13 04:50:14;;;;;;;;;2.00;2.00;;;;;15.91;49.35;102076.13;2403134;28;45263;-78
2022/05/13 04:51:26;;;;;;;;;4.75;3.00;;;;;15.89;49.36;102075.31;2402501;28;45478;-78
2022/05/13 04:52:36;;;;;;;;;3.50;2.50;;;;;15.89;49.69;102077.97;2403394;28;45215;-78
2022/05/13 04:53:50;;;;;;;;;3.00;1.75;;;;;15.91;49.55;102081.41;2402578;28;45582;-78
2022/05/13 04:55:03;;;;;;;;;2.50;2.25;;;;;15.91;49.73;102073.47;2399218;28;44641;-79
2022/05/13 04:56:13;;;;;;;;;4.25;3.00;;;;;15.91;49.82;102080.53;2394263;28;45375;-79
2022/05/13 04:57:24;;;;;;;;;2.00;2.00;;;;;15.91;49.31;102081.41;2402601;28;45183;-79
2022/05/13 04:58:35;;;;;;;;;2.25;2.00;;;;;15.91;49.38;102081.41;2403182;28;45360;-80
2022/05/13 04:59:46;;;;;;;;;3.25;3.25;;;;;15.91;49.64;102080.53;2402102;28;45378;-81
2022/05/13 05:00:58;;;;;;;;;2.50;2.50;;;;;15.91;49.52;102081.41;2402980;28;46293;-81
2022/05/13 05:02:09;;;;;;;;;2.00;2.00;;;;;15.92;49.66;102076.97;2401183;28;44699;-81
2022/05/13 05:03:21;;;;;;;;;3.50;3.00;;;;;15.94;49.76;102083.97;2378035;28;47145;-81
2022/05/13 05:04:32;;;;;;;;;2.25;2.25;;;;;15.94;49.77;102086.63;2396142;28;45199;-78
2022/05/13 05:05:43;;;;;;;;;2.50;2.50;;;;;15.96;49.48;102086.56;2398209;28;46142;-78
2022/05/13 05:06:53;;;;;;;;;3.75;3.00;;;;;15.96;49.65;102086.56;2394046;28;45211;-78
2022/05/13 05:08:04;;;;;;;;;3.25;2.00;;;;;15.97;49.69;102094.47;2394528;28;46257;-78
2022/05/13 05:09:15;;;;;;;;;6.00;2.50;;;;;15.97;49.70;102093.59;2401890;28;45436;-78
2022/05/13 05:10:25;;;;;;;;;3.00;2.00;;;;;15.97;49.75;102093.59;2392271;28;47625;-78
2022/05/13 05:11:35;;;;;;;;;4.75;2.00;;;;;15.97;49.76;102096.25;2395144;28;45447;-78
2022/05/13 05:12:47;;;;;;;;;2.50;2.50;;;;;15.96;49.19;102095.38;2402279;28;45604;-78
2022/05/13 05:13:58;;;;;;;;;1.75;1.75;;;;;15.96;49.27;102095.38;2392966;28;44825;-78
2022/05/13 05:15:09;;;;;;;;;2.00;2.00;;;;;15.96;49.38;102099.81;2395640;28;45341;-77
2022/05/13 05:16:22;;;;;;;;;4.00;3.00;;;;;15.95;49.65;102098.94;2403986;28;45149;-78
2022/05/13 05:17:32;;;;;;;;;5.00;3.00;;;;;15.92;49.36;102099.06;2400401;28;46067;-77
2022/05/13 05:18:43;;;;;;;;;3.25;2.00;;;;;15.92;49.53;102104.38;2394338;28;44566;-77
2022/05/13 05:19:53;;;;;;;;;3.00;3.00;;;;;15.90;49.40;102105.34;2392314;28;48196;-77
2022/05/13 05:21:05;;;;;;;;;1.00;1.00;;;;;15.90;49.58;102098.22;2395161;28;45216;-77
2022/05/13 05:22:16;;;;;;;;;2.00;2.00;;;;;15.90;49.71;102100.03;2396944;28;45454;-78
2022/05/13 05:23:29;;;;;;;;;2.00;2.00;;;;;15.91;49.68;102105.28;2393814;28;45164;-78
2022/05/13 05:24:39;;;;;;;;;4.25;2.00;;;;;15.91;49.65;102107.94;2393325;28;46645;-79
2022/05/13 05:25:50;;;;;;;;;2.25;2.00;;;;;15.91;49.69;102107.06;2393344;28;45211;-79
2022/05/13 05:27:00;;;;;;;;;5.00;2.50;;;;;15.90;50.15;102106.19;2386755;28;46254;-79
2022/05/13 05:28:12;;;;;;;;;2.00;2.00;;;;;15.92;50.19;102116.75;2394199;28;45469;-78
2022/05/13 05:29:22;;;;;;;;;2.50;2.50;;;;;15.92;50.13;102111.47;2397195;28;46839;-77
2022/05/13 05:30:32;;;;;;;;;4.00;2.25;;;;;15.92;49.83;102120.28;2394356;28;45273;-78
2022/05/13 05:31:43;;;;;;;;;2.00;2.00;;;;;15.92;50.08;102114.09;2392793;28;48225;-78
2022/05/13 05:32:53;;;;;;;;;7.25;3.50;;;;;15.93;49.94;102118.47;2387858;28;45937;-77
2022/05/13 05:34:04;;;;;;;;;2.00;2.00;;;;;15.94;50.09;102121.09;2390526;28;47837;-77
2022/05/13 05:35:18;;;;;;;;;2.00;2.00;;;;;15.94;49.82;102117.56;2391784;28;45481;-77
2022/05/13 05:36:28;;;;;;;;;3.25;2.25;;;;;15.94;49.66;102121.09;2401216;28;45401;-77
2022/05/13 05:37:39;;;;;;;;;0.75;0.00;;;;;15.92;49.91;102120.28;2398183;28;45179;-77
2022/05/13 05:38:49;;;;;;;;;3.00;3.00;;;;;15.91;49.78;102117.66;2399454;28;45333;-76
2022/05/13 05:39:59;;;;;;;;;3.00;3.00;;;;;15.89;50.07;102123.03;2389498;28;45338;-76
2022/05/13 05:41:10;;;;;;;;;5.25;3.75;;;;;15.88;50.13;102121.28;2389830;28;46470;-77
2022/05/13 05:42:20;;;;;;;;;4.00;3.00;;;;;15.89;49.83;102128.34;2397798;28;45321;-77
2022/05/13 05:43:31;;;;;;;;;2.75;2.75;;;;;15.88;50.07;102126.59;2402893;28;45268;-77
2022/05/13 05:44:41;;;;;;;;;5.50;3.00;;;;;15.90;50.14;102127.41;2396659;28;44671;-77
2022/05/13 05:45:51;;;;;;;;;3.00;2.00;;;;;15.91;50.55;102129.13;2383359;28;46990;-77
2022/05/13 05:47:03;;;;;;;;;2.50;2.00;;;;;15.91;50.05;102122.97;2391865;28;45444;-77